Jump to content

Sign in to follow this  
Guest scottzdc

WRRR - Bali

Recommended Posts

Guest scottzdc

Hi guysI flew into Bali today and had some issues. I also flew over Bali a few weeks ago and noticed the same behavior.when I fetched WRRR the response wasWAAA 021900Z etc.as I approached Bali, the active station became WRRR 000000Z weird wx 13005 9999 05/01 2990 something must really be wrong if it is 5 in Bali :-)after landing, out of curiosity I downloaded Jeppesen wx and it was 25 :-)I fly all over the world, and the only other place I've seen this was Tahiti which you guys fixed. Hopefully this is just a database issue.ThanksChris

Share this post


Link to post
Share on other sites

Hi Chris,Looked to be a data problem. I just went to WRRR and got:WRRR 022200Z 06005KT 6000 RA BKN016 24/24 Q1011 NOSIG RMK AUTOGEN AS2004.5And for WAAA:WAAA 022200Z 06005KT 6000 RA BKN016 24/24 Q1011 NOSIGThings look back to normal.Hope this helps,JimActiveSky Supporthttp://www.hifisim.com/images/as2004proudsupporter.jpg

Share this post


Link to post
Share on other sites

Join the conversation

You can post now and register later. If you have an account, sign in now to post with your account.
Note: Your post will require moderator approval before it will be visible.

Guest
Reply to this topic...

×   Pasted as rich text.   Paste as plain text instead

  Only 75 emoji are allowed.

×   Your link has been automatically embedded.   Display as a link instead

×   Your previous content has been restored.   Clear editor

×   You cannot paste images directly. Upload or insert images from URL.

Sign in to follow this  

×
×
  • Create New...